Time;durP1;ratioP1;P1;durP2;ratioP2;P2;SDS_P1;SDS_P2;PMS_P1;PMS_P2;Temp;Humidity;BMP_temperature;BMP_pressure;BME280_temperature;BME280_humidity;BME280_pressure;Samples;Min_cycle;Max_cycle;Signal;HPM_P1;HPM_P2
2021/07/25 04:02:20;;;;;;;20.03;17.97;;;20.40;99.90;;;;;;5156507;23;20599;-71
2021/07/25 04:04:47;;;;;;;21.27;18.93;;;20.40;99.90;;;;;;4993959;28;20453;-70
2021/07/25 04:07:13;;;;;;;21.27;19.27;;;20.50;99.90;;;;;;4994171;28;20477;-70
2021/07/25 04:09:40;;;;;;;20.90;18.80;;;20.50;99.90;;;;;;4994311;28;20461;-70
2021/07/25 04:12:07;;;;;;;20.97;18.90;;;20.50;99.90;;;;;;4994260;28;20474;-70
2021/07/25 04:14:34;;;;;;;36.93;18.63;;;20.50;99.90;;;;;;4994215;28;20462;-70
2021/07/25 04:17:01;;;;;;;22.00;18.87;;;20.50;99.90;;;;;;4994004;28;20449;-70
2021/07/25 04:19:29;;;;;;;26.10;21.03;;;20.50;99.90;;;;;;4994183;28;20460;-70
2021/07/25 04:21:56;;;;;;;30.57;20.00;;;20.50;99.90;;;;;;5003650;28;21037;-70
2021/07/25 04:24:22;;;;;;;23.63;21.23;;;20.60;99.90;;;;;;4997503;28;20481;-70
2021/07/25 04:26:49;;;;;;;24.63;21.10;;;20.50;99.90;;;;;;4993865;28;20481;-70
2021/07/25 04:29:16;;;;;;;21.53;19.33;;;20.60;99.90;;;;;;4993946;28;20516;-70
2021/07/25 04:31:44;;;;;;;21.80;19.47;;;20.50;99.90;;;;;;4993802;28;20882;-70
2021/07/25 04:34:12;;;;;;;22.23;19.93;;;20.50;99.90;;;;;;4996992;28;20489;-70
2021/07/25 04:36:42;;;;;;;21.73;19.53;;;20.60;99.90;;;;;;4997291;28;20454;-70
2021/07/25 04:39:10;;;;;;;22.50;20.40;;;20.70;99.90;;;;;;4997295;28;20500;-70
2021/07/25 04:41:41;;;;;;;22.53;20.13;;;20.70;99.90;;;;;;4997173;28;20477;-70
2021/07/25 04:44:15;;;;;;;20.33;18.33;;;20.80;99.90;;;;;;4997113;28;20862;-70
2021/07/25 04:46:47;;;;;;;21.73;17.87;;;20.80;99.90;;;;;;4996977;28;20438;-70
2021/07/25 04:49:15;;;;;;;20.83;18.90;;;20.80;99.90;;;;;;4997039;28;20450;-70
2021/07/25 04:51:45;;;;;;;20.60;18.67;;;20.80;99.90;;;;;;4996987;28;20883;-70
2021/07/25 04:54:13;;;;;;;20.60;18.80;;;20.90;99.90;;;;;;4997156;28;20433;-70
2021/07/25 04:56:57;;;;;;;22.07;20.07;;;20.90;99.90;;;;;;4996626;28;20472;-70
2021/07/25 04:59:27;;;;;;;23.17;20.87;;;20.80;99.90;;;;;;4996971;28;20434;-70
2021/07/25 05:01:58;;;;;;;23.80;21.50;;;20.80;99.90;;;;;;4996381;28;20509;-70
2021/07/25 05:04:28;;;;;;;24.67;22.00;;;20.80;99.90;;;;;;4996732;28;20855;-70
2021/07/25 05:06:56;;;;;;;23.80;21.50;;;20.70;99.90;;;;;;4996784;28;22375;-70
2021/07/25 05:09:24;;;;;;;24.07;21.47;;;20.70;99.90;;;;;;4996558;28;20465;-70
2021/07/25 05:11:54;;;;;;;24.43;21.70;;;20.70;99.90;;;;;;4996541;28;20540;-70
2021/07/25 05:14:26;;;;;;;23.17;20.90;;;20.70;99.90;;;;;;4996333;28;20474;-70
2021/07/25 05:17:02;;;;;;;21.57;19.57;;;20.80;99.90;;;;;;4996618;28;20462;-70
2021/07/25 05:19:41;;;;;;;21.80;19.90;;;20.80;99.90;;;;;;4996244;28;20806;-70
2021/07/25 05:22:18;;;;;;;20.53;18.60;;;20.90;99.90;;;;;;4996415;28;20524;-70
2021/07/25 05:24:46;;;;;;;19.60;17.60;;;21.00;99.90;;;;;;4996582;28;21029;-70
2021/07/25 05:27:19;;;;;;;18.83;17.13;;;21.10;99.90;;;;;;4996528;28;20482;-70
2021/07/25 05:29:47;;;;;;;19.47;17.37;;;21.10;99.90;;;;;;4996484;28;20469;-70
2021/07/25 05:32:15;;;;;;;19.00;17.20;;;21.00;99.90;;;;;;4996409;28;20516;-70
2021/07/25 05:34:42;;;;;;;19.77;17.77;;;21.10;99.90;;;;;;4996477;28;20458;-70
2021/07/25 05:37:10;;;;;;;17.40;15.80;;;21.00;99.90;;;;;;4996483;28;20457;-70
2021/07/25 05:39:36;;;;;;;19.47;17.67;;;21.10;99.90;;;;;;4996568;28;20461;-70
2021/07/25 05:42:04;;;;;;;17.30;15.60;;;21.10;99.90;;;;;;5002695;28;20979;-70
2021/07/25 05:44:31;;;;;;;17.57;15.80;;;21.10;99.90;;;;;;5000978;28;20477;-70
2021/07/25 05:46:58;;;;;;;16.63;15.13;;;21.10;99.90;;;;;;4996072;28;20453;-70
2021/07/25 05:49:25;;;;;;;17.90;16.10;;;21.10;99.90;;;;;;4996084;28;20464;-71
2021/07/25 05:51:52;;;;;;;14.73;13.43;;;21.20;99.90;;;;;;4996153;28;20478;-70
2021/07/25 05:54:20;;;;;;;14.50;13.10;;;21.30;99.90;;;;;;4996027;28;20454;-70
2021/07/25 05:56:46;;;;;;;15.23;13.80;;;21.30;99.90;;;;;;4995753;28;20465;-70
2021/07/25 05:59:13;;;;;;;16.70;15.10;;;21.30;99.90;;;;;;4995900;28;20450;-70
2021/07/25 06:01:40;;;;;;;17.23;15.63;;;21.40;99.90;;;;;;4995635;28;20500;-70
2021/07/25 06:04:07;;;;;;;17.23;15.70;;;21.30;99.90;;;;;;4996268;28;20462;-70
2021/07/25 06:06:34;;;;;;;17.70;16.03;;;21.30;99.90;;;;;;4996391;28;20454;-70
2021/07/25 06:09:03;;;;;;;20.50;18.00;;;21.20;99.90;;;;;;4996819;28;20482;-70
2021/07/25 06:11:31;;;;;;;18.20;16.70;;;21.20;99.90;;;;;;4995812;28;20478;-70
2021/07/25 06:13:58;;;;;;;19.10;16.37;;;21.20;99.90;;;;;;5007623;28;20450;-71
2021/07/25 06:16:25;;;;;;;16.20;14.47;;;21.20;99.90;;;;;;5009866;28;20438;-70
2021/07/25 06:18:52;;;;;;;17.43;16.00;;;21.20;99.90;;;;;;4996530;28;20476;-70
2021/07/25 06:21:19;;;;;;;19.63;17.53;;;21.30;99.90;;;;;;4996804;28;20478;-71
2021/07/25 06:23:48;;;;;;;23.77;17.57;;;21.40;99.90;;;;;;4998021;28;20453;-71
2021/07/25 06:26:15;;;;;;;21.77;19.33;;;21.40;99.90;;;;;;4999230;28;20454;-70
2021/07/25 06:28:44;;;;;;;20.50;18.50;;;21.50;99.90;;;;;;4998956;28;20565;-70
2021/07/25 06:31:11;;;;;;;21.37;19.20;;;21.50;99.90;;;;;;4997494;28;20474;-69
2021/07/25 06:33:38;;;;;;;20.83;18.87;;;21.60;99.90;;;;;;4995602;28;20446;-70
2021/07/25 06:36:11;;;;;;;18.70;17.10;;;21.70;99.90;;;;;;4997307;28;20461;-70
2021/07/25 06:38:38;;;;;;;18.50;16.70;;;21.80;99.90;;;;;;4995113;28;20469;-70
2021/07/25 06:41:06;;;;;;;21.00;19.20;;;21.80;99.90;;;;;;4995452;28;20474;-70
2021/07/25 06:43:33;;;;;;;18.90;17.30;;;21.90;99.90;;;;;;4995011;28;20453;-71
2021/07/25 06:46:01;;;;;;;19.83;18.00;;;22.00;99.90;;;;;;4995087;28;20457;-70
2021/07/25 06:48:29;;;;;;;17.13;15.43;;;22.10;99.90;;;;;;4995023;28;20480;-71
2021/07/25 06:50:57;;;;;;;17.90;16.13;;;22.20;99.90;;;;;;4994989;28;20524;-71
2021/07/25 06:53:27;;;;;;;17.27;15.67;;;22.30;99.90;;;;;;4994770;28;20970;-71
2021/07/25 06:55:55;;;;;;;16.67;15.17;;;22.50;99.90;;;;;;4994749;28;20442;-71
2021/07/25 06:58:22;;;;;;;13.60;12.37;;;22.70;99.90;;;;;;4995008;28;20528;-71
2021/07/25 07:00:49;;;;;;;15.27;13.87;;;22.90;99.90;;;;;;4994699;28;20485;-71
2021/07/25 07:03:20;;;;;;;14.40;13.20;;;23.10;99.90;;;;;;4995750;28;20459;-71
2021/07/25 07:05:47;;;;;;;14.43;13.23;;;23.50;99.90;;;;;;4994907;28;20477;-71
2021/07/25 07:08:14;;;;;;;12.63;11.43;;;23.80;99.90;;;;;;4995219;28;20474;-71
2021/07/25 07:10:43;;;;;;;13.33;12.00;;;24.10;99.90;;;;;;4995095;28;20470;-72
2021/07/25 07:13:11;;;;;;;12.73;10.90;;;24.50;99.90;;;;;;4995074;28;20458;-72
2021/07/25 07:15:40;;;;;;;11.00;10.07;;;25.10;99.90;;;;;;4994688;28;20458;-71
2021/07/25 07:18:07;;;;;;;13.40;10.67;;;25.70;99.90;;;;;;4994400;28;20830;-71
2021/07/25 07:20:35;;;;;;;10.13;9.37;;;26.40;99.90;;;;;;4994088;28;20835;-71
2021/07/25 07:23:05;;;;;;;11.23;10.20;;;27.00;99.90;;;;;;4994569;28;20449;-71
2021/07/25 07:25:34;;;;;;;10.77;9.70;;;27.50;99.90;;;;;;4994670;28;20525;-71
2021/07/25 07:28:01;;;;;;;8.83;7.97;;;27.70;99.90;;;;;;4994452;28;20484;-71
2021/07/25 07:30:28;;;;;;;8.47;7.97;;;28.00;99.90;;;;;;4994520;28;20453;-71
2021/07/25 07:32:55;;;;;;;11.43;8.93;;;28.20;99.90;;;;;;4994448;28;20464;-71
2021/07/25 07:35:23;;;;;;;8.63;7.93;;;28.00;99.90;;;;;;4994352;28;20458;-71
2021/07/25 07:37:52;;;;;;;8.37;7.73;;;28.10;99.90;;;;;;4994331;28;20504;-71
2021/07/25 07:40:19;;;;;;;8.63;7.93;;;28.40;99.90;;;;;;4994029;28;20981;-71
2021/07/25 07:42:46;;;;;;;8.03;7.43;;;27.70;99.90;;;;;;4994304;28;20462;-71
2021/07/25 07:45:18;;;;;;;9.33;8.53;;;27.70;99.90;;;;;;4994196;28;20969;-71
2021/07/25 07:47:44;;;;;;;8.57;7.97;;;27.90;99.90;;;;;;4994381;28;20814;-70
2021/07/25 07:50:12;;;;;;;11.03;9.10;;;27.60;99.90;;;;;;4994719;28;20457;-72
2021/07/25 07:52:38;;;;;;;8.93;8.13;;;27.30;99.90;;;;;;4994334;28;20876;-73
2021/07/25 07:55:08;;;;;;;8.47;7.83;;;27.10;99.90;;;;;;4993972;28;20964;-73
2021/07/25 07:57:34;;;;;;;9.20;8.50;;;27.00;99.90;;;;;;4994329;28;20454;-73
2021/07/25 08:00:01;;;;;;;9.83;8.97;;;26.70;99.90;;;;;;4994415;28;20462;-74
2021/07/25 08:02:29;;;;;;;10.63;9.57;;;26.50;99.90;;;;;;4993780;28;20485;-73
2021/07/25 08:04:57;;;;;;;10.80;9.77;;;26.20;99.90;;;;;;4993926;28;20935;-73
2021/07/25 08:07:24;;;;;;;10.40;9.60;;;25.90;99.90;;;;;;4994673;28;20454;-74
2021/07/25 08:09:50;;;;;;;10.10;9.30;;;26.00;99.90;;;;;;4997777;28;20478;-73
2021/07/25 08:12:19;;;;;;;9.33;8.50;;;26.00;99.90;;;;;;4997557;28;20847;-73
2021/07/25 08:14:45;;;;;;;9.90;8.90;;;26.00;99.90;;;;;;4997893;28;20484;-74
2021/07/25 08:17:12;;;;;;;9.03;8.23;;;26.10;99.90;;;;;;4997685;28;20829;-74
2021/07/25 08:19:39;;;;;;;9.30;8.40;;;26.50;99.90;;;;;;4997830;28;20454;-73
2021/07/25 08:22:07;;;;;;;11.20;9.20;;;27.00;99.90;;;;;;4997702;28;21005;-75
2021/07/25 08:24:35;;;;;;;8.27;7.57;;;27.30;99.90;;;;;;4997716;28;20981;-73
2021/07/25 08:27:02;;;;;;;7.80;7.10;;;27.50;99.90;;;;;;4997757;28;20481;-73
2021/07/25 08:29:30;;;;;;;7.33;6.73;;;27.60;99.90;;;;;;4997958;28;20478;-74
2021/07/25 08:31:59;;;;;;;10.63;8.77;;;27.80;99.90;;;;;;4997858;28;20477;-73
2021/07/25 08:34:26;;;;;;;9.13;8.43;;;27.20;99.90;;;;;;4998061;28;20453;-73
2021/07/25 08:36:53;;;;;;;8.70;7.90;;;27.10;99.90;;;;;;4997694;28;20557;-72
2021/07/25 08:39:20;;;;;;;8.67;8.07;;;27.10;99.90;;;;;;4997482;28;20453;-72
2021/07/25 08:42:04;;;;;;;9.20;8.50;;;26.90;99.90;;;;;;4997903;28;20484;-72
2021/07/25 08:44:47;;;;;;;9.47;8.63;;;26.80;99.90;;;;;;4997920;28;20434;-72
2021/07/25 08:47:23;;;;;;;9.17;8.40;;;26.60;99.90;;;;;;4997499;28;20438;-72
2021/07/25 08:49:54;;;;;;;8.83;8.23;;;26.30;99.90;;;;;;4998054;28;20492;-72
2021/07/25 08:52:23;;;;;;;9.80;8.47;;;25.80;99.90;;;;;;4997804;28;20489;-72
2021/07/25 08:54:50;;;;;;;9.70;8.93;;;25.60;99.90;;;;;;4997613;28;20454;-72
2021/07/25 08:57:20;;;;;;;9.80;9.00;;;25.30;99.90;;;;;;4997603;28;20458;-72
2021/07/25 08:59:50;;;;;;;10.30;9.50;;;25.10;99.90;;;;;;4998331;28;20450;-73
2021/07/25 09:02:21;;;;;;;9.40;8.63;;;24.90;99.90;;;;;;4997165;28;20493;-72
2021/07/25 09:04:49;;;;;;;11.37;9.67;;;24.80;99.90;;;;;;4997490;28;20446;-72
2021/07/25 09:07:17;;;;;;;10.10;9.40;;;24.70;99.90;;;;;;4997358;28;20464;-72
2021/07/25 09:09:46;;;;;;;9.27;8.50;;;24.60;99.90;;;;;;4999639;28;20476;-69
2021/07/25 09:12:15;;;;;;;9.63;8.83;;;24.60;99.90;;;;;;4997019;28;20477;-69
2021/07/25 09:14:44;;;;;;;8.90;8.10;;;24.50;99.90;;;;;;4997182;28;20464;-70
2021/07/25 09:17:12;;;;;;;9.00;8.30;;;24.60;99.90;;;;;;4997432;28;20461;-69
2021/07/25 09:20:20;;;;;;;10.30;9.30;;;24.60;99.90;;;;;;4999799;28;20454;-68
2021/07/25 09:23:09;;;;;;;8.97;8.10;;;24.60;99.90;;;;;;5001994;28;20430;-71
2021/07/25 09:25:39;;;;;;;10.50;8.33;;;24.60;99.90;;;;;;4997486;28;20445;-69
2021/07/25 09:28:30;;;;;;;13.97;12.77;;;24.60;99.90;;;;;;4996830;28;20434;-69
2021/07/25 09:31:10;;;;;;;10.20;9.20;;;24.60;99.90;;;;;;4997407;28;20496;-70
2021/07/25 09:33:43;;;;;;;9.00;8.30;;;24.60;99.90;;;;;;4997285;28;20438;-69
2021/07/25 09:36:12;;;;;;;10.10;8.60;;;24.50;99.90;;;;;;4997151;28;20478;-71
2021/07/25 09:38:40;;;;;;;9.10;8.50;;;24.60;99.90;;;;;;4996683;28;20469;-68
2021/07/25 09:41:16;;;;;;;9.00;8.30;;;24.70;99.90;;;;;;4996678;28;20474;-71
2021/07/25 09:43:43;;;;;;;9.77;8.80;;;24.80;99.90;;;;;;4996758;28;20461;-71
2021/07/25 09:46:11;;;;;;;9.03;7.93;;;24.90;99.90;;;;;;4997544;28;20458;-72
2021/07/25 09:48:39;;;;;;;8.97;8.10;;;25.20;99.90;;;;;;4996619;28;20478;-72
2021/07/25 09:51:23;;;;;;;9.00;8.27;;;25.30;99.90;;;;;;4995947;28;20477;-66
2021/07/25 09:53:52;;;;;;;7.83;7.30;;;25.30;99.90;;;;;;4997675;28;20437;-67
2021/07/25 09:56:23;;;;;;;8.23;7.63;;;25.20;99.90;;;;;;4996828;28;20461;-67
2021/07/25 09:58:50;;;;;;;8.27;7.77;;;25.20;99.90;;;;;;4996721;28;20457;-67
2021/07/25 10:01:39;;;;;;;8.17;7.57;;;25.10;99.90;;;;;;4996767;28;20492;-67
2021/07/25 10:04:14;;;;;;;8.63;7.93;;;25.10;99.90;;;;;;4997898;28;20438;-67
2021/07/25 10:06:43;;;;;;;8.40;7.80;;;25.00;99.90;;;;;;4997476;28;20446;-67
2021/07/25 10:09:11;;;;;;;7.73;7.00;;;24.90;99.90;;;;;;4997416;28;20482;-68
2021/07/25 10:11:40;;;;;;;9.20;8.40;;;25.00;99.90;;;;;;4997696;28;20982;-67
2021/07/25 10:14:07;;;;;;;8.20;7.60;;;25.00;99.90;;;;;;4998278;28;20493;-67
2021/07/25 10:16:34;;;;;;;8.33;7.73;;;24.90;99.90;;;;;;4997247;28;20973;-66
2021/07/25 10:19:03;;;;;;;8.20;7.60;;;24.80;99.90;;;;;;4999018;28;20520;-66
2021/07/25 10:21:33;;;;;;;13.07;11.87;;;24.80;99.90;;;;;;4999527;28;20666;-66
2021/07/25 10:24:02;;;;;;;12.60;11.37;;;24.80;99.90;;;;;;4999168;28;20809;-66
2021/07/25 10:26:30;;;;;;;9.90;9.00;;;24.70;99.90;;;;;;4998857;28;20480;-66
2021/07/25 10:28:58;;;;;;;11.43;9.50;;;24.40;99.90;;;;;;4998958;28;20998;-67
2021/07/25 10:31:26;;;;;;;10.33;9.60;;;24.30;99.90;;;;;;4997281;28;20512;-68
2021/07/25 10:33:53;;;;;;;10.43;9.57;;;24.20;99.90;;;;;;4996981;28;20461;-68
2021/07/25 10:36:21;;;;;;;13.10;9.53;;;24.10;99.90;;;;;;4996813;28;20814;-67
2021/07/25 10:38:49;;;;;;;12.43;11.43;;;23.80;99.90;;;;;;4996327;28;20454;-69
2021/07/25 10:41:22;;;;;;;11.90;10.80;;;23.50;99.90;;;;;;4995499;28;20829;-69
2021/07/25 10:43:49;;;;;;;13.60;12.40;;;23.30;99.90;;;;;;4995438;28;20433;-69
2021/07/25 10:46:20;;;;;;;14.60;13.40;;;22.90;99.90;;;;;;4995414;28;20458;-70
2021/07/25 10:49:12;;;;;;;13.63;12.43;;;22.70;99.90;;;;;;4995322;28;20850;-69
2021/07/25 10:52:00;;;;;;;13.67;12.57;;;22.50;99.90;;;;;;4996429;28;20470;-70
2021/07/25 10:54:45;;;;;;;12.70;11.60;;;22.40;99.90;;;;;;4997706;28;20459;-69
2021/07/25 10:57:11;;;;;;;14.67;13.27;;;22.30;99.90;;;;;;4995182;28;20443;-69
2021/07/25 10:59:42;;;;;;;15.27;13.73;;;22.10;99.90;;;;;;4995373;28;20450;-70
2021/07/25 11:02:12;;;;;;;14.67;13.47;;;22.00;99.90;;;;;;4994742;28;20983;-70
2021/07/25 11:05:01;;;;;;;16.20;14.80;;;21.80;99.90;;;;;;4995404;28;20492;-70
2021/07/25 11:07:37;;;;;;;15.60;14.10;;;21.80;99.90;;;;;;4995116;28;20458;-69
2021/07/25 11:10:11;;;;;;;14.47;13.07;;;21.80;99.90;;;;;;4995361;28;20465;-69
2021/07/25 11:13:20;;;;;;;13.87;12.60;;;21.70;99.90;;;;;;4995274;28;20437;-69
2021/07/25 11:15:47;;;;;;;13.00;11.90;;;21.70;99.90;;;;;;4995143;28;20509;-70
2021/07/25 11:18:29;;;;;;;12.57;11.47;;;21.70;99.90;;;;;;4995149;28;20457;-70
2021/07/25 11:20:59;;;;;;;13.00;11.80;;;21.80;99.90;;;;;;4995533;28;20533;-70
2021/07/25 11:23:33;;;;;;;12.73;11.63;;;21.80;99.90;;;;;;4995253;28;20453;-70
2021/07/25 11:26:32;;;;;;;10.80;9.90;;;21.90;99.90;;;;;;4995208;28;20497;-71
2021/07/25 11:29:00;;;;;;;10.63;9.73;;;22.00;99.90;;;;;;4994748;28;20474;-71
2021/07/25 11:31:43;;;;;;;11.23;10.23;;;22.00;99.90;;;;;;4996407;28;20505;-70
2021/07/25 11:34:13;;;;;;;11.90;10.80;;;22.00;99.90;;;;;;4997264;28;20446;-70
2021/07/25 11:36:40;;;;;;;10.90;10.07;;;22.00;99.90;;;;;;4996373;28;20464;-71
2021/07/25 11:39:08;;;;;;;12.00;10.83;;;22.10;99.90;;;;;;4996036;28;20457;-71
2021/07/25 11:41:38;;;;;;;10.03;9.13;;;22.20;99.90;;;;;;4996034;28;20828;-71
2021/07/25 11:44:07;;;;;;;9.77;9.07;;;22.30;99.90;;;;;;4999105;28;20477;-70
2021/07/25 11:46:39;;;;;;;9.50;8.77;;;22.40;99.90;;;;;;4999229;28;20465;-71
2021/07/25 11:49:13;;;;;;;9.17;8.37;;;22.50;99.90;;;;;;4999053;28;20922;-71
2021/07/25 11:51:43;;;;;;;8.60;7.87;;;22.50;99.90;;;;;;4998970;28;20479;-71
2021/07/25 11:54:11;;;;;;;8.27;7.53;;;22.60;99.90;;;;;;4999668;28;20454;-71
2021/07/25 11:56:52;;;;;;;9.90;6.90;;;22.70;99.90;;;;;;5004343;28;20454;-71
2021/07/25 11:59:18;;;;;;;8.70;8.00;;;22.80;99.90;;;;;;4998950;28;20441;-71
2021/07/25 12:01:45;;;;;;;8.90;8.10;;;22.80;99.90;;;;;;4998871;28;20488;-71
2021/07/25 12:04:22;;;;;;;9.83;7.33;;;22.90;99.90;;;;;;4998661;28;20962;-71
2021/07/25 12:07:01;;;;;;;8.97;8.07;;;22.90;99.90;;;;;;4998913;28;20441;-71
2021/07/25 12:09:28;;;;;;;8.43;7.73;;;22.90;99.90;;;;;;4998328;28;20523;-71
2021/07/25 12:12:11;;;;;;;9.53;8.53;;;23.10;99.90;;;;;;4998225;28;20479;-71
2021/07/25 12:14:41;;;;;;;9.07;8.37;;;23.10;99.90;;;;;;4998549;28;20445;-71
2021/07/25 12:17:09;;;;;;;8.63;7.93;;;23.10;99.90;;;;;;4998206;28;20458;-71
2021/07/25 12:19:38;;;;;;;12.50;7.50;;;23.00;99.90;;;;;;4998296;28;20449;-71
2021/07/25 12:22:23;;;;;;;8.13;7.33;;;23.00;99.90;;;;;;4998378;28;20504;-71
2021/07/25 12:24:54;;;;;;;7.17;6.57;;;23.00;99.90;;;;;;5000751;28;20433;-72
2021/07/25 12:27:27;;;;;;;7.80;7.30;;;22.90;99.90;;;;;;4997802;28;20442;-72
2021/07/25 12:30:06;;;;;;;7.90;7.30;;;22.70;99.90;;;;;;4998156;28;20465;-71
2021/07/25 12:32:34;;;;;;;7.13;6.53;;;22.70;99.90;;;;;;4998023;28;20880;-71
2021/07/25 12:35:20;;;;;;;7.10;6.50;;;22.60;99.90;;;;;;5003941;28;20529;-71
2021/07/25 12:37:48;;;;;;;7.70;6.80;;;22.50;99.90;;;;;;5003320;28;20465;-71
2021/07/25 12:40:18;;;;;;;7.43;6.90;;;22.40;99.90;;;;;;4997996;28;20453;-71
2021/07/25 12:42:48;;;;;;;7.50;6.87;;;22.40;99.90;;;;;;4997500;28;20814;-71
2021/07/25 12:45:26;;;;;;;7.97;7.27;;;22.50;99.90;;;;;;4997467;28;20957;-71
2021/07/25 12:48:17;;;;;;;7.63;7.03;;;22.60;99.90;;;;;;4997001;28;20802;-72
2021/07/25 12:50:50;;;;;;;8.50;7.70;;;22.60;99.90;;;;;;4996970;28;20908;-72
2021/07/25 12:53:21;;;;;;;8.07;7.30;;;22.70;99.90;;;;;;4996612;28;20442;-72
2021/07/25 12:55:49;;;;;;;12.70;7.70;;;22.80;99.90;;;;;;4997187;28;20442;-71
2021/07/25 12:58:17;;;;;;;7.87;7.20;;;22.80;99.90;;;;;;4997064;28;20453;-71
2021/07/25 13:01:03;;;;;;;8.63;8.00;;;22.90;99.90;;;;;;4996439;28;20489;-71
2021/07/25 13:03:48;;;;;;;7.37;6.87;;;22.90;99.90;;;;;;4996887;28;20463;-71
2021/07/25 13:06:16;;;;;;;7.20;6.70;;;22.80;99.90;;;;;;4996764;28;20572;-71
2021/07/25 13:08:44;;;;;;;7.57;6.97;;;22.90;99.90;;;;;;4996415;28;20910;-71
2021/07/25 13:11:13;;;;;;;5.50;5.00;;;23.10;99.90;;;;;;4996454;28;20485;-71
2021/07/25 13:13:43;;;;;;;6.10;5.50;;;23.10;99.90;;;;;;4999355;28;20465;-71
2021/07/25 13:16:11;;;;;;;7.30;6.70;;;23.10;99.90;;;;;;4998674;28;20482;-70
2021/07/25 13:18:39;;;;;;;6.87;6.27;;;23.30;99.90;;;;;;4996750;28;20457;-71
2021/07/25 13:21:06;;;;;;;6.57;6.07;;;23.60;99.90;;;;;;4996953;28;20880;-71
2021/07/25 13:23:32;;;;;;;10.83;9.90;;;23.90;99.90;;;;;;4997219;28;20464;-71
2021/07/25 13:25:59;;;;;;;7.10;6.60;;;24.10;99.90;;;;;;4998460;28;20508;-71
2021/07/25 13:28:26;;;;;;;6.30;5.80;;;24.50;99.90;;;;;;4997164;28;20480;-71
2021/07/25 13:30:54;;;;;;;6.33;5.83;;;24.70;99.90;;;;;;4996798;28;20536;-71
2021/07/25 13:33:21;;;;;;;5.50;5.17;;;24.90;99.90;;;;;;4996512;28;20458;-71
2021/07/25 13:35:49;;;;;;;5.00;4.70;;;25.00;99.90;;;;;;4996302;28;20461;-71
2021/07/25 13:38:16;;;;;;;5.60;5.20;;;25.10;99.90;;;;;;4996416;28;20454;-71
2021/07/25 13:40:42;;;;;;;6.17;5.67;;;25.20;99.90;;;;;;4996364;28;20481;-71
2021/07/25 13:43:11;;;;;;;6.70;6.20;;;25.40;99.90;;;;;;4996910;28;20461;-71
2021/07/25 13:45:41;;;;;;;6.10;5.63;;;25.40;99.90;;;;;;4996915;28;20464;-72
2021/07/25 13:48:11;;;;;;;9.73;8.40;;;25.30;99.90;;;;;;4997316;28;20784;-71
2021/07/25 13:50:38;;;;;;;6.27;5.73;;;25.40;99.90;;;;;;4996041;28;20493;-71
2021/07/25 13:53:05;;;;;;;7.83;6.50;;;25.20;99.90;;;;;;4996666;28;20461;-71
2021/07/25 13:55:33;;;;;;;6.37;5.87;;;25.30;99.90;;;;;;4998382;28;20973;-71
2021/07/25 13:58:00;;;;;;;6.80;6.20;;;25.20;99.90;;;;;;4996658;28;20449;-71
2021/07/25 14:00:26;;;;;;;5.90;5.50;;;25.20;99.90;;;;;;4995947;28;20450;-71
2021/07/25 14:02:53;;;;;;;6.10;5.70;;;25.20;99.90;;;;;;4996167;28;20508;-71
2021/07/25 14:05:21;;;;;;;6.67;6.07;;;25.20;99.90;;;;;;5004819;28;20461;-71
2021/07/25 14:07:48;;;;;;;7.77;6.80;;;25.10;99.90;;;;;;5002173;28;20453;-71
2021/07/25 14:10:15;;;;;;;6.27;5.77;;;25.10;99.90;;;;;;4995888;28;20484;-71
2021/07/25 14:12:41;;;;;;;7.60;6.80;;;25.20;99.90;;;;;;4995622;28;20946;-71
2021/07/25 14:15:09;;;;;;;6.73;5.97;;;25.20;99.90;;;;;;4995305;28;20911;-71
2021/07/25 14:17:36;;;;;;;6.40;6.00;;;25.20;99.90;;;;;;4995179;28;20465;-71
2021/07/25 14:20:03;;;;;;;6.90;6.23;;;25.30;99.90;;;;;;4995707;28;20457;-71
2021/07/25 14:22:31;;;;;;;7.43;6.23;;;25.30;99.90;;;;;;4995319;28;20509;-71
2021/07/25 14:24:58;;;;;;;7.07;6.57;;;25.30;99.90;;;;;;4995436;28;20453;-72
2021/07/25 14:27:25;;;;;;;7.97;7.37;;;25.30;99.90;;;;;;4995600;28;20460;-72
2021/07/25 14:29:52;;;;;;;16.63;8.00;;;25.20;99.90;;;;;;4995004;28;20484;-72
2021/07/25 14:32:18;;;;;;;7.97;7.37;;;25.40;99.90;;;;;;4996464;28;20792;-71
2021/07/25 14:34:45;;;;;;;8.00;7.40;;;25.50;99.90;;;;;;4995359;28;20469;-71
2021/07/25 14:37:11;;;;;;;8.03;7.30;;;25.50;99.90;;;;;;4995295;28;20458;-71
2021/07/25 14:39:39;;;;;;;9.10;8.40;;;25.60;99.90;;;;;;4995363;28;20454;-71
2021/07/25 14:42:06;;;;;;;8.43;7.47;;;25.60;99.90;;;;;;4995128;28;20477;-72
2021/07/25 14:44:33;;;;;;;8.10;7.37;;;25.70;99.90;;;;;;4995294;28;20454;-71
2021/07/25 14:47:00;;;;;;;8.43;7.63;;;25.50;99.90;;;;;;4994991;28;20453;-71
2021/07/25 14:49:26;;;;;;;8.03;7.33;;;25.50;99.90;;;;;;4994931;28;20457;-71
2021/07/25 14:51:53;;;;;;;8.50;7.80;;;25.60;99.90;;;;;;4994779;28;20513;-71
2021/07/25 14:54:20;;;;;;;7.50;7.00;;;25.60;99.90;;;;;;4994765;28;20457;-71
2021/07/25 14:56:48;;;;;;;8.57;7.87;;;25.60;99.90;;;;;;4994955;28;20462;-71
2021/07/25 14:59:15;;;;;;;7.97;7.37;;;25.70;99.90;;;;;;4994830;28;20879;-71
2021/07/25 15:01:41;;;;;;;8.50;7.80;;;25.80;99.90;;;;;;4994502;28;20484;-71
2021/07/25 15:04:09;;;;;;;8.90;8.07;;;26.00;99.90;;;;;;4994980;28;20454;-71
2021/07/25 15:06:36;;;;;;;9.10;8.37;;;26.30;99.90;;;;;;4994964;28;20462;-71
2021/07/25 15:09:02;;;;;;;8.80;8.00;;;26.30;99.90;;;;;;4995541;28;20457;-71
2021/07/25 15:11:29;;;;;;;8.77;7.97;;;26.40;99.90;;;;;;4994818;28;20486;-71
2021/07/25 15:13:57;;;;;;;9.17;7.40;;;26.50;99.90;;;;;;4994969;28;20512;-71
2021/07/25 15:16:25;;;;;;;7.17;6.67;;;26.60;99.90;;;;;;4994399;28;20454;-71
2021/07/25 15:18:52;;;;;;;8.50;7.80;;;26.50;99.90;;;;;;4994636;28;20984;-71
2021/07/25 15:21:19;;;;;;;8.23;7.50;;;26.50;99.90;;;;;;4994810;28;20851;-71
2021/07/25 15:23:47;;;;;;;7.27;6.60;;;26.50;99.90;;;;;;4994404;28;20450;-71
2021/07/25 15:26:14;;;;;;;5.93;5.43;;;26.60;99.90;;;;;;4994787;28;20457;-71
2021/07/25 15:28:41;;;;;;;7.57;6.97;;;26.60;99.90;;;;;;4994876;28;20441;-71
2021/07/25 15:31:09;;;;;;;7.83;7.10;;;26.50;99.90;;;;;;4994596;28;20477;-71
2021/07/25 15:33:36;;;;;;;7.10;6.50;;;26.50;99.90;;;;;;4994516;28;20886;-71
2021/07/25 15:36:03;;;;;;;5.70;5.30;;;26.60;99.90;;;;;;4995026;28;20461;-71
2021/07/25 15:38:31;;;;;;;5.23;4.93;;;26.60;99.90;;;;;;4994830;28;20449;-71
2021/07/25 15:40:57;;;;;;;5.10;4.70;;;26.50;99.90;;;;;;4994790;28;20520;-71
2021/07/25 15:43:24;;;;;;;4.90;4.60;;;26.20;99.90;;;;;;4994808;28;20977;-71
2021/07/25 15:45:51;;;;;;;3.83;3.63;;;26.30;99.90;;;;;;4994668;28;20470;-71
2021/07/25 15:48:19;;;;;;;3.50;3.30;;;25.90;99.90;;;;;;4994381;28;20461;-71
2021/07/25 15:50:48;;;;;;;4.70;3.63;;;26.00;99.90;;;;;;4994444;28;20482;-71
2021/07/25 15:53:15;;;;;;;5.20;4.07;;;25.80;99.90;;;;;;4994222;28;20464;-71
2021/07/25 15:55:42;;;;;;;4.40;4.10;;;25.70;99.90;;;;;;4994299;28;20799;-71
2021/07/25 15:58:08;;;;;;;4.00;3.70;;;25.50;99.90;;;;;;4994647;28;20468;-71
2021/07/25 16:00:35;;;;;;;3.87;3.60;;;25.30;99.90;;;;;;4994176;28;20474;-71
2021/07/25 16:03:02;;;;;;;3.47;3.27;;;25.50;99.90;;;;;;5001734;28;20497;-71
2021/07/25 16:05:30;;;;;;;4.30;4.00;;;25.50;99.90;;;;;;4995040;28;20453;-71
2021/07/25 16:07:57;;;;;;;4.80;4.13;;;25.60;99.90;;;;;;4994768;28;20476;-70
2021/07/25 16:10:24;;;;;;;4.77;4.37;;;25.60;99.90;;;;;;4994048;28;20908;-70
2021/07/25 16:12:50;;;;;;;6.70;6.23;;;25.50;99.90;;;;;;4994213;28;20457;-70
2021/07/25 16:15:17;;;;;;;5.00;4.60;;;25.40;99.90;;;;;;4994494;28;20520;-70
2021/07/25 16:17:44;;;;;;;3.60;3.40;;;25.50;99.90;;;;;;4994351;28;20457;-71
2021/07/25 16:20:11;;;;;;;6.00;5.60;;;25.30;99.90;;;;;;4994279;28;20461;-71
2021/07/25 16:22:39;;;;;;;4.30;4.00;;;25.30;99.90;;;;;;4994081;28;20541;-71
2021/07/25 16:25:07;;;;;;;4.57;4.17;;;25.30;99.90;;;;;;4994205;28;20825;-71
2021/07/25 16:27:33;;;;;;;3.73;3.43;;;25.30;99.90;;;;;;4994703;28;20458;-71
2021/07/25 16:30:00;;;;;;;4.53;4.10;;;25.30;99.90;;;;;;4997443;28;20461;-71
2021/07/25 16:32:27;;;;;;;4.37;4.07;;;25.40;99.90;;;;;;4997644;28;21026;-71
2021/07/25 16:34:54;;;;;;;3.23;3.03;;;25.20;99.90;;;;;;4997569;28;21013;-71
2021/07/25 16:37:21;;;;;;;5.10;4.60;;;25.10;99.90;;;;;;4997827;28;20461;-71
2021/07/25 16:39:49;;;;;;;3.70;3.50;;;25.00;99.90;;;;;;4997643;28;20862;-71
2021/07/25 16:42:20;;;;;;;3.93;3.73;;;24.90;99.90;;;;;;4997830;28;20470;-71
2021/07/25 16:44:47;;;;;;;6.20;5.70;;;24.90;99.90;;;;;;5002715;28;20438;-70
2021/07/25 16:47:14;;;;;;;3.63;3.43;;;24.90;99.90;;;;;;5003588;28;20469;-71
2021/07/25 16:49:40;;;;;;;5.47;4.33;;;24.90;99.90;;;;;;5003330;28;20453;-71
2021/07/25 16:52:07;;;;;;;5.30;3.97;;;24.90;99.90;;;;;;5000928;28;20489;-70